createdAt,value
2023-01-17T00:02:33.254Z,70.33
2023-01-17T00:05:53.953Z,70.76
2023-01-17T00:09:14.771Z,71.86
2023-01-17T00:12:16.986Z,70.75
2023-01-17T00:15:20.107Z,70.68
2023-01-17T00:18:22.382Z,70.41
2023-01-17T00:21:43.036Z,70.23
2023-01-17T00:25:03.834Z,70.31
2023-01-17T00:28:06.146Z,71.03
2023-01-17T00:31:09.440Z,70.78
2023-01-17T00:38:03.308Z,71.18
2023-01-17T00:41:37.134Z,70.44
2023-01-17T00:45:19.324Z,70.32
2023-01-17T00:49:11.980Z,70.99
2023-01-17T00:56:08.485Z,70.33
2023-01-17T00:59:45.616Z,69.80
2023-01-17T01:03:30.043Z,70.86
2023-01-17T01:06:56.219Z,71.15
2023-01-17T01:10:17.786Z,70.56
2023-01-17T01:17:54.878Z,70.88
2023-01-17T01:21:38.916Z,70.67
2023-01-17T01:25:20.027Z,70.11
2023-01-17T01:28:42.912Z,70.86
2023-01-17T01:36:14.811Z,70.66
2023-01-17T01:39:21.993Z,70.68
2023-01-17T01:56:14.307Z,72.25
2023-01-17T01:59:20.971Z,72.80
2023-01-17T02:02:23.378Z,72.34
2023-01-17T02:05:27.661Z,72.84
2023-01-17T02:08:30.189Z,72.94
2023-01-17T02:11:33.800Z,72.55
2023-01-17T02:14:35.978Z,72.15
2023-01-17T02:18:08.730Z,72.21
2023-01-17T02:21:35.082Z,72.93
2023-01-17T02:24:55.971Z,72.75
2023-01-17T02:28:19.835Z,72.23
2023-01-17T02:31:31.976Z,72.59
2023-01-17T02:34:47.572Z,72.12
2023-01-17T02:38:03.170Z,72.41
2023-01-17T02:41:08.896Z,72.27
2023-01-17T02:44:16.401Z,72.55
2023-01-17T02:47:27.259Z,72.10
2023-01-17T02:50:43.127Z,72.32
2023-01-17T02:54:05.541Z,72.34
2023-01-17T02:57:42.811Z,72.20
2023-01-17T03:01:06.913Z,71.83
2023-01-17T03:04:22.163Z,72.67
2023-01-17T03:07:26.483Z,71.41
2023-01-17T03:10:30.816Z,71.54
2023-01-17T03:13:33.023Z,72.32
2023-01-17T03:16:35.453Z,71.65
2023-01-17T03:19:37.834Z,72.82
2023-01-17T03:22:40.040Z,71.80
2023-01-17T03:25:42.220Z,72.32
2023-01-17T03:28:45.299Z,71.88
2023-01-17T03:31:47.480Z,72.37
2023-01-17T03:34:49.707Z,72.06
2023-01-17T03:38:14.809Z,72.35
2023-01-17T03:41:18.925Z,71.62
2023-01-17T03:44:22.897Z,72.15
2023-01-17T03:47:25.148Z,72.87
2023-01-17T03:50:27.423Z,72.49
2023-01-17T03:53:30.692Z,71.91
2023-01-17T03:56:32.819Z,72.28
2023-01-17T03:59:35.111Z,71.17
2023-01-17T04:02:37.330Z,72.12
2023-01-17T04:05:39.497Z,72.11
2023-01-17T04:08:41.778Z,71.85
2023-01-17T04:11:44.016Z,71.52
2023-01-17T04:14:46.154Z,71.18
2023-01-17T04:17:48.322Z,71.53
2023-01-17T04:20:51.553Z,72.40
2023-01-17T04:23:53.725Z,72.21
2023-01-17T04:26:55.930Z,72.25
2023-01-17T04:29:58.058Z,72.42
2023-01-17T04:33:00.347Z,71.78
2023-01-17T04:36:02.502Z,72.24
2023-01-17T04:39:04.841Z,72.03
2023-01-17T04:42:06.963Z,71.87
2023-01-17T04:45:09.447Z,71.46
2023-01-17T04:48:12.755Z,71.31
2023-01-17T04:51:15.279Z,72.35
2023-01-17T04:54:17.616Z,72.20
2023-01-17T04:57:20.137Z,72.17
2023-01-17T05:00:24.154Z,71.45
2023-01-17T05:03:26.992Z,71.55
2023-01-17T05:06:29.178Z,71.90
2023-01-17T05:09:31.679Z,72.18
2023-01-17T05:12:33.906Z,71.88
2023-01-17T05:15:36.448Z,71.72
2023-01-17T05:18:38.729Z,71.76
2023-01-17T05:21:40.905Z,72.03
2023-01-17T05:24:44.640Z,71.36
2023-01-17T05:27:46.829Z,71.66
2023-01-17T05:30:49.067Z,71.57
2023-01-17T05:33:54.229Z,71.00
2023-01-17T05:36:56.539Z,71.91
2023-01-17T05:39:58.687Z,72.51
2023-01-17T05:43:01.633Z,71.90
2023-01-17T05:46:06.414Z,71.45
2023-01-17T05:49:08.815Z,71.60
2023-01-17T05:52:10.903Z,71.54
2023-01-17T05:55:13.010Z,72.72
2023-01-17T05:58:17.369Z,72.18
2023-01-17T06:01:19.760Z,73.38
2023-01-17T06:04:22.041Z,73.19
2023-01-17T06:07:24.225Z,73.38
2023-01-17T06:10:27.016Z,72.81
2023-01-17T06:13:29.266Z,72.16
2023-01-17T06:16:31.362Z,73.54
2023-01-17T06:19:33.519Z,73.20
2023-01-17T06:22:35.651Z,73.63
2023-01-17T06:25:43.696Z,73.50
2023-01-17T06:28:45.891Z,73.46
2023-01-17T06:31:48.097Z,73.60
2023-01-17T06:34:50.302Z,73.81
2023-01-17T06:37:55.457Z,73.61
2023-01-17T06:41:00.260Z,74.57
2023-01-17T06:44:03.564Z,75.67
2023-01-17T06:47:05.732Z,74.50
2023-01-17T06:50:10.642Z,73.51
2023-01-17T06:53:12.975Z,73.48
2023-01-17T06:56:15.251Z,74.36
2023-01-17T06:59:17.394Z,74.73
2023-01-17T07:02:19.782Z,74.58
2023-01-17T07:05:22.587Z,74.00
2023-01-17T07:08:27.888Z,72.42
2023-01-17T07:11:31.472Z,72.86
2023-01-17T07:14:35.841Z,72.99
2023-01-17T07:17:38.659Z,72.50
2023-01-17T07:20:43.852Z,73.44
2023-01-17T07:23:46.296Z,72.94
2023-01-17T07:26:49.830Z,73.13
2023-01-17T07:29:54.127Z,73.33
2023-01-17T07:32:56.548Z,73.42
2023-01-17T07:35:58.939Z,72.87
2023-01-17T07:39:01.278Z,73.18
2023-01-17T07:42:03.474Z,73.39
2023-01-17T07:45:06.798Z,74.21
2023-01-17T07:48:10.543Z,73.34
2023-01-17T07:51:12.957Z,73.06
2023-01-17T07:54:15.307Z,73.11
2023-01-17T07:57:17.850Z,72.45
2023-01-17T08:00:20.601Z,73.67
2023-01-17T08:03:32.247Z,74.61
2023-01-17T08:06:34.558Z,74.53
2023-01-17T08:09:36.823Z,73.99
2023-01-17T08:12:39.001Z,73.55
2023-01-17T08:15:41.282Z,72.65
2023-01-17T08:18:43.571Z,71.84
2023-01-17T08:21:45.802Z,70.97
2023-01-17T08:24:48.589Z,70.15
2023-01-17T08:27:57.278Z,70.71
2023-01-17T08:31:08.507Z,68.67
2023-01-17T08:34:10.847Z,67.07
2023-01-17T08:37:14.477Z,68.56
2023-01-17T08:40:20.884Z,67.47
2023-01-17T08:43:23.171Z,67.82
2023-01-17T08:46:25.776Z,69.09
2023-01-17T08:49:28.655Z,69.36
2023-01-17T08:52:30.990Z,68.42
2023-01-17T08:55:37.804Z,65.90
2023-01-17T08:58:46.497Z,68.35
2023-01-17T09:01:48.798Z,66.78
2023-01-17T09:05:11.444Z,66.61
2023-01-17T09:08:13.833Z,67.03
2023-01-17T09:11:18.239Z,64.29
2023-01-17T09:14:22.823Z,65.60
2023-01-17T09:17:29.298Z,65.12
2023-01-17T09:20:37.764Z,63.55
2023-01-17T09:23:39.931Z,63.64
2023-01-17T09:26:42.195Z,65.36
2023-01-17T09:29:44.422Z,65.72
2023-01-17T09:32:53.246Z,64.58
2023-01-17T09:36:01.293Z,63.60
2023-01-17T09:39:04.577Z,64.14
2023-01-17T09:42:19.304Z,63.72
2023-01-17T09:45:26.365Z,65.03
2023-01-17T09:48:36.366Z,61.60
2023-01-17T09:51:48.342Z,62.66
2023-01-17T09:55:08.493Z,61.85
2023-01-17T10:04:10.656Z,62.05
2023-01-17T10:08:02.017Z,61.16
2023-01-17T10:11:21.330Z,62.15
2023-01-17T10:15:08.435Z,63.01
2023-01-17T10:18:44.761Z,61.21
2023-01-17T10:22:07.496Z,63.62
2023-01-17T10:25:28.358Z,60.90
2023-01-17T10:28:35.655Z,58.74
2023-01-17T10:31:55.259Z,60.80
2023-01-17T10:35:01.432Z,61.06
2023-01-17T10:38:06.178Z,60.54
2023-01-17T10:41:18.499Z,60.68
2023-01-17T10:44:25.098Z,60.82
2023-01-17T10:47:31.277Z,60.31
2023-01-17T10:51:15.645Z,58.24
2023-01-17T10:59:50.388Z,57.65
2023-01-17T11:05:50.406Z,59.14
2023-01-17T11:09:10.847Z,58.48
2023-01-17T11:13:01.717Z,56.69
2023-01-17T11:16:58.165Z,57.61
2023-01-17T11:24:22.636Z,54.97
2023-01-17T11:28:04.554Z,52.57
2023-01-17T11:36:05.663Z,51.52
2023-01-17T11:40:00.937Z,48.77
2023-01-17T11:43:10.743Z,45.61
2023-01-17T11:46:23.709Z,43.46
2023-01-17T11:49:38.278Z,44.35
2023-01-17T11:53:07.951Z,43.27
2023-01-17T11:56:46.518Z,41.67
2023-01-17T12:00:13.670Z,40.26
2023-01-17T12:03:51.671Z,38.48
2023-01-17T12:06:59.766Z,38.97
2023-01-17T12:10:05.076Z,39.51
2023-01-17T12:13:48.756Z,36.88
2023-01-17T12:17:14.001Z,35.52
2023-01-17T12:20:35.547Z,34.09
2023-01-17T12:24:12.990Z,33.54
2023-01-17T12:28:19.718Z,34.43
2023-01-17T12:31:54.085Z,36.29
2023-01-17T12:35:00.775Z,37.61
2023-01-17T12:38:06.271Z,37.82
2023-01-17T12:41:18.427Z,37.80
2023-01-17T12:44:30.196Z,39.18
2023-01-17T12:47:36.245Z,39.90
2023-01-17T12:51:02.362Z,41.22
2023-01-17T12:54:23.599Z,43.49
2023-01-17T12:57:48.542Z,43.81
2023-01-17T13:01:12.607Z,45.55
2023-01-17T13:04:38.467Z,46.59
2023-01-17T13:07:47.335Z,47.06
2023-01-17T13:11:03.709Z,47.97
2023-01-17T13:14:09.038Z,48.90
2023-01-17T13:17:23.225Z,49.31
2023-01-17T13:20:33.744Z,50.32
2023-01-17T13:24:08.130Z,50.42
2023-01-17T13:27:32.068Z,51.34
2023-01-17T13:31:08.034Z,52.54
2023-01-17T13:34:32.804Z,52.96
2023-01-17T13:37:48.001Z,53.65
2023-01-17T13:41:01.034Z,54.28
2023-01-17T13:44:24.356Z,55.04
2023-01-17T13:47:27.581Z,55.10
2023-01-17T13:50:51.412Z,55.47
2023-01-17T13:54:30.939Z,55.55
2023-01-17T13:57:41.854Z,55.64
2023-01-17T14:00:44.018Z,56.62
2023-01-17T14:03:46.175Z,58.00
2023-01-17T14:06:55.498Z,57.96
2023-01-17T14:09:57.629Z,57.56
2023-01-17T14:13:02.803Z,57.68
2023-01-17T14:16:26.173Z,59.21
2023-01-17T14:19:28.434Z,59.24
2023-01-17T14:22:35.103Z,59.19
2023-01-17T14:25:41.418Z,59.25
2023-01-17T14:28:43.537Z,59.95
2023-01-17T14:31:46.579Z,59.29
2023-01-17T14:34:51.256Z,59.97
2023-01-17T14:37:54.320Z,60.34
2023-01-17T14:41:11.080Z,60.56
2023-01-17T14:44:13.277Z,60.51
2023-01-17T14:47:15.860Z,60.51
2023-01-17T14:50:17.983Z,60.71
2023-01-17T14:53:22.670Z,60.66
2023-01-17T14:56:26.918Z,60.40
2023-01-17T14:59:29.071Z,60.82
2023-01-17T15:02:31.528Z,61.14
2023-01-17T15:05:34.483Z,60.82
2023-01-17T15:08:36.762Z,61.23
2023-01-17T15:11:39.379Z,60.63
2023-01-17T15:14:45.817Z,60.84
2023-01-17T15:17:47.979Z,61.12
2023-01-17T15:20:57.128Z,61.61
2023-01-17T15:24:02.778Z,61.03
2023-01-17T15:27:06.449Z,61.18
2023-01-17T15:30:11.294Z,60.40
2023-01-17T15:33:16.998Z,60.96
2023-01-17T15:36:30.063Z,61.53
2023-01-17T15:39:34.968Z,61.11
2023-01-17T15:42:38.714Z,60.98
2023-01-17T15:45:41.271Z,61.68
2023-01-17T15:48:44.891Z,61.08
2023-01-17T15:52:14.623Z,60.73
2023-01-17T15:55:23.898Z,61.19
2023-01-17T15:58:28.954Z,60.83
2023-01-17T16:01:31.381Z,61.19
2023-01-17T16:04:34.859Z,61.30
2023-01-17T16:07:37.000Z,60.88
2023-01-17T16:10:39.498Z,62.09
2023-01-17T16:13:43.371Z,61.45
2023-01-17T16:16:52.426Z,60.64
2023-01-17T16:19:54.698Z,61.20
2023-01-17T16:22:57.198Z,61.59
2023-01-17T16:25:59.412Z,60.75
2023-01-17T16:29:01.573Z,60.67
2023-01-17T16:32:08.618Z,61.70
2023-01-17T16:35:19.034Z,61.61
2023-01-17T16:38:21.253Z,61.60
2023-01-17T16:41:23.481Z,62.12
2023-01-17T16:44:25.744Z,62.13
2023-01-17T16:47:27.962Z,63.02
2023-01-17T16:50:30.145Z,62.72
2023-01-17T16:53:32.378Z,63.36
2023-01-17T16:56:34.476Z,63.68
2023-01-17T16:59:49.963Z,64.61
2023-01-17T17:02:53.485Z,64.65
2023-01-17T17:05:59.346Z,65.60
2023-01-17T17:09:17.266Z,65.96
2023-01-17T17:12:19.385Z,65.90
2023-01-17T17:15:21.654Z,66.99
2023-01-17T17:18:23.962Z,67.67
2023-01-17T17:21:27.222Z,68.18
2023-01-17T17:24:29.348Z,68.20
2023-01-17T17:27:31.534Z,68.67
2023-01-17T17:30:34.553Z,68.82
2023-01-17T17:33:36.936Z,69.52
2023-01-17T17:36:39.474Z,69.56
2023-01-17T17:39:42.436Z,69.40
2023-01-17T17:42:44.544Z,70.50
2023-01-17T17:45:46.719Z,71.28
2023-01-17T17:48:49.126Z,71.12
2023-01-17T17:51:51.361Z,71.16
2023-01-17T17:54:53.685Z,70.98
2023-01-17T17:57:56.014Z,70.99
2023-01-17T18:01:01.833Z,70.54
2023-01-17T18:04:04.540Z,70.89
2023-01-17T18:07:06.751Z,69.84
2023-01-17T18:10:09.374Z,69.87
2023-01-17T18:13:11.577Z,69.80
2023-01-17T18:16:15.589Z,69.89
2023-01-17T18:19:23.478Z,70.42
2023-01-17T18:22:25.703Z,70.46
2023-01-17T18:25:27.894Z,70.31
2023-01-17T18:28:30.061Z,71.57
2023-01-17T18:31:32.443Z,70.64
2023-01-17T18:34:35.777Z,70.64
2023-01-17T18:37:38.025Z,71.60
2023-01-17T18:40:40.143Z,71.11
2023-01-17T18:43:42.654Z,70.85
2023-01-17T18:46:45.130Z,72.20
2023-01-17T18:49:53.611Z,71.79
2023-01-17T18:52:56.319Z,71.69
2023-01-17T18:56:00.969Z,72.24
2023-01-17T18:59:06.129Z,72.74
2023-01-17T19:02:09.044Z,72.46
2023-01-17T19:05:11.915Z,73.26
2023-01-17T19:08:15.729Z,73.89
2023-01-17T19:11:19.491Z,73.83
2023-01-17T19:14:21.638Z,74.06
2023-01-17T19:17:23.787Z,72.45
2023-01-17T19:20:25.881Z,73.39
2023-01-17T19:23:27.990Z,72.87
2023-01-17T19:26:30.206Z,73.15
2023-01-17T19:29:32.669Z,73.10
2023-01-17T19:32:34.987Z,73.37
2023-01-17T19:35:37.718Z,73.91
2023-01-17T19:38:40.247Z,73.57
2023-01-17T19:41:44.613Z,74.16
2023-01-17T19:44:46.824Z,73.60
2023-01-17T19:47:48.934Z,73.70
2023-01-17T19:50:51.101Z,72.90
2023-01-17T19:53:56.537Z,73.42
2023-01-17T19:56:58.734Z,74.23
2023-01-17T20:00:01.917Z,73.14
2023-01-17T20:03:05.603Z,73.02
2023-01-17T20:06:08.619Z,74.32
2023-01-17T20:09:12.937Z,74.08
2023-01-17T20:12:15.225Z,73.58
2023-01-17T20:15:17.498Z,73.07
2023-01-17T20:18:20.035Z,73.49
2023-01-17T20:21:23.880Z,73.33
2023-01-17T20:24:26.178Z,72.82
2023-01-17T20:27:28.351Z,73.81
2023-01-17T20:30:32.878Z,73.31
2023-01-17T20:33:36.238Z,73.54
2023-01-17T20:36:40.225Z,73.27
2023-01-17T20:39:42.418Z,73.84
2023-01-17T20:42:44.582Z,74.22
2023-01-17T20:45:54.292Z,75.15
2023-01-17T20:48:57.893Z,73.70
2023-01-17T20:52:00.942Z,74.92
2023-01-17T20:55:03.140Z,74.09
2023-01-17T20:58:05.574Z,74.74
2023-01-17T21:01:09.151Z,73.97
2023-01-17T21:04:11.546Z,72.89
2023-01-17T21:07:13.737Z,73.48
2023-01-17T21:10:16.423Z,73.14
2023-01-17T21:13:18.583Z,74.19
2023-01-17T21:16:22.934Z,74.51
2023-01-17T21:19:25.239Z,74.81
2023-01-17T21:22:28.851Z,74.63
2023-01-17T21:25:31.046Z,73.51
2023-01-17T21:28:37.216Z,74.81
2023-01-17T21:31:40.862Z,73.22
2023-01-17T21:34:43.006Z,74.61
2023-01-17T21:37:49.408Z,73.95
2023-01-17T21:40:56.391Z,74.82
2023-01-17T21:44:00.467Z,76.09
2023-01-17T21:47:03.380Z,76.14
2023-01-17T21:50:05.810Z,75.56
2023-01-17T21:53:09.933Z,74.60
2023-01-17T21:56:32.783Z,73.74
2023-01-17T21:59:35.036Z,74.76
2023-01-17T22:02:37.294Z,74.21
2023-01-17T22:05:39.522Z,73.15
2023-01-17T22:08:41.872Z,73.96
2023-01-17T22:11:44.031Z,75.19
2023-01-17T22:14:46.301Z,74.28
2023-01-17T22:17:48.469Z,72.33
2023-01-17T22:20:50.628Z,74.59
2023-01-17T22:23:55.069Z,73.68
2023-01-17T22:26:57.269Z,74.06
2023-01-17T22:29:59.446Z,73.41
2023-01-17T22:33:01.636Z,72.35
2023-01-17T22:36:05.040Z,74.06
2023-01-17T22:39:07.739Z,75.70
2023-01-17T22:42:10.016Z,74.45
2023-01-17T22:45:12.507Z,72.49
2023-01-17T22:48:14.637Z,71.60
2023-01-17T22:51:18.298Z,71.97
2023-01-17T22:54:20.505Z,71.97
2023-01-17T22:57:23.280Z,71.78
2023-01-17T23:00:25.417Z,73.18
2023-01-17T23:03:27.576Z,72.83
2023-01-17T23:06:37.915Z,73.39
2023-01-17T23:09:40.082Z,74.36
2023-01-17T23:12:42.239Z,72.83
2023-01-17T23:16:02.763Z,71.46
2023-01-17T23:19:25.183Z,72.98
2023-01-17T23:22:29.962Z,72.91
2023-01-17T23:25:32.104Z,72.17
2023-01-17T23:28:34.260Z,71.71
2023-01-17T23:31:36.751Z,71.46
2023-01-17T23:34:38.921Z,72.09
2023-01-17T23:37:59.822Z,71.04
2023-01-17T23:41:21.069Z,70.88
2023-01-17T23:44:23.434Z,71.26
2023-01-17T23:47:25.592Z,71.78
2023-01-17T23:50:27.867Z,71.14
2023-01-17T23:53:30.033Z,71.90
2023-01-17T23:56:32.169Z,71.04
2023-01-17T23:59:34.329Z,72.97
